createdAt,value
2017-03-08T00:00:07.679Z,99.99
2017-03-08T00:01:07.699Z,99.99
2017-03-08T00:02:07.729Z,99.99
2017-03-08T00:03:07.766Z,99.99
2017-03-08T00:04:07.788Z,99.99
2017-03-08T00:05:07.817Z,99.99
2017-03-08T00:06:07.828Z,99.99
2017-03-08T00:07:07.865Z,99.99
2017-03-08T00:08:07.894Z,99.99
2017-03-08T00:09:07.919Z,99.99
2017-03-08T00:10:07.928Z,99.99
2017-03-08T00:11:07.968Z,99.99
2017-03-08T00:12:08.005Z,99.99
2017-03-08T00:13:08.029Z,99.99
2017-03-08T00:14:08.080Z,99.99
2017-03-08T00:15:08.075Z,99.99
2017-03-08T00:16:08.102Z,99.99
2017-03-08T00:17:08.127Z,99.99
2017-03-08T00:18:08.157Z,99.99
2017-03-08T00:19:08.178Z,99.99
2017-03-08T00:20:08.210Z,99.99
2017-03-08T00:21:08.246Z,99.99
2017-03-08T00:22:08.254Z,99.99
2017-03-08T00:23:08.294Z,99.99
2017-03-08T00:24:08.307Z,99.99
2017-03-08T00:25:08.335Z,99.99
2017-03-08T00:26:08.364Z,99.99
2017-03-08T00:27:08.387Z,99.99
2017-03-08T00:28:08.415Z,99.99
2017-03-08T00:29:08.438Z,99.99
2017-03-08T00:30:08.503Z,99.99
2017-03-08T00:31:08.489Z,99.99
2017-03-08T00:32:08.513Z,99.99
2017-03-08T00:33:08.543Z,99.99
2017-03-08T00:34:08.568Z,99.99
2017-03-08T00:35:08.593Z,99.99
2017-03-08T00:36:08.624Z,99.99
2017-03-08T00:37:08.676Z,99.99
2017-03-08T00:38:08.668Z,99.99
2017-03-08T00:39:08.697Z,99.99
2017-03-08T00:40:08.711Z,99.99
2017-03-08T00:41:08.744Z,99.99
2017-03-08T00:42:08.777Z,99.99
2017-03-08T00:43:08.800Z,99.99
2017-03-08T00:44:08.855Z,99.99
2017-03-08T00:45:08.867Z,99.99
2017-03-08T00:46:08.877Z,99.99
2017-03-08T00:47:08.904Z,99.99
2017-03-08T00:48:08.931Z,99.99
2017-03-08T00:49:08.957Z,99.99
2017-03-08T00:50:09.010Z,99.99
2017-03-08T00:51:09.008Z,99.99
2017-03-08T00:52:09.033Z,99.99
2017-03-08T00:53:09.057Z,99.99
2017-03-08T00:54:09.084Z,99.99
2017-03-08T00:55:09.112Z,99.99
2017-03-08T00:56:09.156Z,99.99
2017-03-08T00:57:09.170Z,99.99
2017-03-08T00:58:09.223Z,99.99
2017-03-08T00:59:09.226Z,99.99
2017-03-08T01:00:09.245Z,99.99
2017-03-08T01:01:09.294Z,99.99
2017-03-08T01:02:09.311Z,99.99
2017-03-08T01:03:09.333Z,99.99
2017-03-08T01:04:09.348Z,99.99
2017-03-08T01:05:09.373Z,99.99
2017-03-08T01:06:09.400Z,99.99
2017-03-08T01:07:09.426Z,99.99
2017-03-08T01:08:09.488Z,99.99
2017-03-08T01:09:09.478Z,99.99
2017-03-08T01:10:09.536Z,99.99
2017-03-08T01:11:09.547Z,99.99
2017-03-08T01:12:09.565Z,99.99
2017-03-08T01:13:09.584Z,99.99
2017-03-08T01:14:09.641Z,99.99
2017-03-08T01:15:09.636Z,99.99
2017-03-08T01:16:09.661Z,99.99
2017-03-08T01:17:09.686Z,99.99
2017-03-08T01:18:09.712Z,99.99
2017-03-08T01:19:09.751Z,99.99
2017-03-08T01:20:09.772Z,99.99
2017-03-08T01:21:09.832Z,99.99
2017-03-08T01:22:09.818Z,99.99
2017-03-08T01:23:09.845Z,99.99
2017-03-08T01:24:09.897Z,99.99
2017-03-08T01:25:09.897Z,99.99
2017-03-08T01:26:09.925Z,99.99
2017-03-08T01:27:09.951Z,99.99
2017-03-08T01:28:09.972Z,99.99
2017-03-08T01:29:10.002Z,99.99
2017-03-08T01:30:10.035Z,99.99
2017-03-08T01:31:10.057Z,99.99
2017-03-08T01:32:10.087Z,99.99
2017-03-08T01:33:10.107Z,99.99
2017-03-08T01:34:10.134Z,99.99
2017-03-08T01:35:10.160Z,99.99
2017-03-08T01:36:10.186Z,99.99
2017-03-08T01:37:10.214Z,99.99
2017-03-08T01:38:10.240Z,99.99
2017-03-08T01:39:10.252Z,99.99
2017-03-08T01:40:10.291Z,99.99
2017-03-08T01:41:10.320Z,99.99
2017-03-08T01:42:10.346Z,99.99
2017-03-08T01:43:10.375Z,99.99
2017-03-08T01:44:10.400Z,99.99
2017-03-08T01:45:10.424Z,99.99
2017-03-08T01:46:10.448Z,99.99
2017-03-08T01:47:10.474Z,99.99
2017-03-08T01:48:10.497Z,99.99
2017-03-08T01:49:10.527Z,99.99
2017-03-08T01:50:10.554Z,99.99
2017-03-08T01:51:10.576Z,99.99
2017-03-08T01:52:10.605Z,99.99
2017-03-08T01:53:10.630Z,99.99
2017-03-08T01:54:10.658Z,99.99
2017-03-08T01:55:10.682Z,99.99
2017-03-08T01:56:10.707Z,99.99
2017-03-08T01:57:10.735Z,99.99
2017-03-08T01:58:10.760Z,99.99
2017-03-08T01:59:10.789Z,99.99
2017-03-08T02:00:10.816Z,99.99
2017-03-08T02:01:10.844Z,99.99
2017-03-08T02:02:10.852Z,99.99
2017-03-08T02:03:10.894Z,99.99
2017-03-08T02:04:10.919Z,99.99
2017-03-08T02:05:10.946Z,99.99
2017-03-08T02:06:10.971Z,99.99
2017-03-08T02:07:10.996Z,99.99
2017-03-08T02:08:11.026Z,99.99
2017-03-08T02:09:11.051Z,99.99
2017-03-08T02:10:11.073Z,99.99
2017-03-08T02:11:11.104Z,99.99
2017-03-08T02:12:11.129Z,99.99
2017-03-08T02:13:11.156Z,99.99
2017-03-08T02:14:11.181Z,99.99
2017-03-08T02:15:11.205Z,99.99
2017-03-08T02:16:11.232Z,99.99
2017-03-08T02:17:11.257Z,99.99
2017-03-08T02:18:11.299Z,99.99
2017-03-08T02:19:11.313Z,99.99
2017-03-08T02:20:11.341Z,99.99
2017-03-08T02:21:11.355Z,99.99
2017-03-08T02:22:11.392Z,99.99
2017-03-08T02:23:11.417Z,99.99
2017-03-08T02:24:11.443Z,99.99
2017-03-08T02:25:11.469Z,99.99
2017-03-08T02:26:11.492Z,99.99
2017-03-08T02:27:11.518Z,99.99
2017-03-08T02:28:11.546Z,99.99
2017-03-08T02:29:11.572Z,99.99
2017-03-08T02:30:11.601Z,99.99
2017-03-08T02:31:11.626Z,99.99
2017-03-08T02:32:11.655Z,99.99
2017-03-08T02:33:11.678Z,99.99
2017-03-08T02:34:11.707Z,99.99
2017-03-08T02:35:11.730Z,99.99
2017-03-08T02:36:11.758Z,99.99
2017-03-08T02:37:11.782Z,99.99
2017-03-08T02:38:11.808Z,99.99
2017-03-08T02:39:11.837Z,99.99
2017-03-08T02:40:11.854Z,99.99
2017-03-08T02:41:11.886Z,99.99
2017-03-08T02:42:11.914Z,99.99
2017-03-08T02:43:11.941Z,99.99
2017-03-08T02:44:11.964Z,99.99
2017-03-08T02:45:11.990Z,99.99
2017-03-08T02:46:12.017Z,99.99
2017-03-08T02:47:12.046Z,99.99
2017-03-08T02:48:12.071Z,99.99
2017-03-08T02:49:12.118Z,99.99
2017-03-08T02:50:12.125Z,99.99
2017-03-08T02:51:12.149Z,99.99
2017-03-08T02:52:12.235Z,99.99
2017-03-08T02:53:12.201Z,99.99
2017-03-08T02:54:12.226Z,99.99
2017-03-08T02:55:12.253Z,99.99
2017-03-08T02:56:12.293Z,99.99
2017-03-08T02:57:12.307Z,99.99
2017-03-08T02:58:12.332Z,99.99
2017-03-08T02:59:37.160Z,99.99
2017-03-08T03:00:37.180Z,99.99
2017-03-08T03:01:37.180Z,99.99
2017-03-08T03:02:37.202Z,99.99
2017-03-08T03:03:37.257Z,99.99
2017-03-08T03:04:37.256Z,99.99
2017-03-08T03:05:37.277Z,99.99
2017-03-08T03:06:37.314Z,99.99
2017-03-08T03:07:37.365Z,99.99
2017-03-08T03:08:37.362Z,99.99
2017-03-08T03:09:37.386Z,99.99
2017-03-08T03:10:37.442Z,99.99
2017-03-08T03:11:37.468Z,99.99
2017-03-08T03:12:37.462Z,99.99
2017-03-08T03:13:37.494Z,99.99
2017-03-08T03:14:37.539Z,99.99
2017-03-08T03:15:37.573Z,99.99
2017-03-08T03:16:37.567Z,99.99
2017-03-08T03:17:37.597Z,99.99
2017-03-08T03:18:37.625Z,99.99
2017-03-08T03:19:37.653Z,99.99
2017-03-08T03:20:37.678Z,99.99
2017-03-08T03:21:37.705Z,99.99
2017-03-08T03:22:37.724Z,99.99
2017-03-08T03:23:37.780Z,99.99
2017-03-08T03:24:37.780Z,99.99
2017-03-08T03:25:37.808Z,99.99
2017-03-08T03:26:37.861Z,99.99
2017-03-08T03:27:37.860Z,99.99
2017-03-08T03:28:37.911Z,99.99
2017-03-08T03:29:37.912Z,99.99
2017-03-08T03:30:37.933Z,99.99
2017-03-08T03:31:37.957Z,99.99
2017-03-08T03:32:37.993Z,99.99
2017-03-08T03:33:38.018Z,99.99
2017-03-08T03:34:38.070Z,99.99
2017-03-08T03:35:38.057Z,99.99
2017-03-08T03:36:38.097Z,99.99
2017-03-08T03:37:38.121Z,99.99
2017-03-08T03:38:38.151Z,99.99
2017-03-08T03:39:38.171Z,99.99
2017-03-08T03:40:38.202Z,99.99
2017-03-08T03:41:38.250Z,99.99
2017-03-08T03:42:38.256Z,99.99
2017-03-08T03:43:38.309Z,99.99
2017-03-08T03:44:38.342Z,99.99
2017-03-08T03:45:38.334Z,99.99
2017-03-08T03:46:38.360Z,99.99
2017-03-08T03:47:38.387Z,99.99
2017-03-08T03:48:38.413Z,99.99
2017-03-08T03:49:38.463Z,99.99
2017-03-08T03:50:38.458Z,99.99
2017-03-08T03:51:38.517Z,99.99
2017-03-08T03:52:38.519Z,99.99
2017-03-08T03:53:38.570Z,99.99
2017-03-08T03:54:38.568Z,99.99
2017-03-08T03:55:38.620Z,99.99
2017-03-08T03:56:38.645Z,99.99
2017-03-08T03:57:38.649Z,99.99
2017-03-08T03:58:38.674Z,99.99
2017-03-08T03:59:38.701Z,99.99
2017-03-08T04:00:38.725Z,99.99
2017-03-08T04:01:38.791Z,99.99
2017-03-08T04:02:38.769Z,99.99
2017-03-08T04:03:38.807Z,99.99
2017-03-08T04:04:38.833Z,99.99
2017-03-08T04:05:38.885Z,99.99
2017-03-08T04:06:38.885Z,99.99
2017-03-08T04:07:38.934Z,99.99
2017-03-08T04:08:38.934Z,99.99
2017-03-08T04:09:38.952Z,99.99
2017-03-08T04:10:38.993Z,99.99
2017-03-08T04:11:39.112Z,99.99
2017-03-08T04:12:39.042Z,99.99
2017-03-08T04:13:39.088Z,99.99
2017-03-08T04:14:39.116Z,99.99
2017-03-08T04:15:39.117Z,99.99
2017-03-08T04:16:39.144Z,99.99
2017-03-08T04:17:39.168Z,99.99
2017-03-08T04:18:39.220Z,99.99
2017-03-08T04:19:39.246Z,99.99
2017-03-08T04:20:39.274Z,99.99
2017-03-08T04:21:39.270Z,99.99
2017-03-08T04:22:39.323Z,99.99
2017-03-08T04:23:39.355Z,99.99
2017-03-08T04:24:39.346Z,99.99
2017-03-08T04:25:39.367Z,99.99
2017-03-08T04:26:39.427Z,99.99
2017-03-08T04:27:39.453Z,99.99
2017-03-08T04:28:39.479Z,99.99
2017-03-08T04:29:39.466Z,99.99
2017-03-08T04:30:39.531Z,99.99
2017-03-08T04:31:39.556Z,99.99
2017-03-08T04:32:39.588Z,99.99
2017-03-08T04:33:39.573Z,99.99
2017-03-08T04:34:39.635Z,99.99
2017-03-08T04:35:39.633Z,99.99
2017-03-08T04:36:39.686Z,99.99
2017-03-08T04:37:39.680Z,99.99
2017-03-08T04:38:39.737Z,99.99
2017-03-08T04:39:39.737Z,99.99
2017-03-08T04:40:39.789Z,99.99
2017-03-08T04:41:39.813Z,99.99
2017-03-08T04:42:39.813Z,99.99
2017-03-08T04:43:39.866Z,99.99
2017-03-08T04:44:39.887Z,99.99
2017-03-08T04:45:39.916Z,99.99
2017-03-08T04:46:39.916Z,99.99
2017-03-08T04:47:39.968Z,99.99
2017-03-08T04:48:39.986Z,99.99
2017-03-08T04:49:40.019Z,99.99
2017-03-08T04:50:40.011Z,99.99
2017-03-08T04:51:40.045Z,99.99
2017-03-08T04:52:40.068Z,99.99
2017-03-08T04:53:40.123Z,99.99
2017-03-08T04:54:40.147Z,99.99
2017-03-08T04:55:40.145Z,99.99
2017-03-08T04:56:40.169Z,99.99
2017-03-08T04:57:40.223Z,99.99
2017-03-08T04:58:40.223Z,99.99
2017-03-08T04:59:40.249Z,99.99
2017-03-08T05:00:40.253Z,99.99
2017-03-08T05:01:40.277Z,99.99
2017-03-08T05:02:40.309Z,99.99
2017-03-08T05:03:40.338Z,99.99
2017-03-08T05:04:40.359Z,99.99
2017-03-08T05:05:40.386Z,99.99
2017-03-08T05:06:40.412Z,99.99
2017-03-08T05:07:40.441Z,99.99
2017-03-08T05:08:40.466Z,99.99
2017-03-08T05:09:40.492Z,99.99
2017-03-08T05:10:40.514Z,99.99
2017-03-08T05:11:40.540Z,99.99
2017-03-08T05:12:40.566Z,99.99
2017-03-08T05:13:40.594Z,99.99
2017-03-08T05:14:40.618Z,99.99
2017-03-08T05:15:40.645Z,99.99
2017-03-08T05:16:40.667Z,99.99
2017-03-08T05:17:40.697Z,99.99
2017-03-08T05:18:40.721Z,99.99
2017-03-08T05:19:40.748Z,99.99
2017-03-08T05:20:40.771Z,99.99
2017-03-08T05:21:40.796Z,99.99
2017-03-08T05:22:40.824Z,99.99
2017-03-08T05:23:40.848Z,99.99
2017-03-08T05:24:40.861Z,99.99
2017-03-08T05:25:40.898Z,99.99
2017-03-08T05:26:40.926Z,99.99
2017-03-08T05:27:40.952Z,99.99
2017-03-08T05:28:40.979Z,99.99
2017-03-08T05:29:41.001Z,99.99
2017-03-08T05:30:41.027Z,99.99
2017-03-08T05:31:41.058Z,99.99
2017-03-08T05:32:41.080Z,99.99
2017-03-08T05:33:41.103Z,99.99
2017-03-08T05:34:41.132Z,99.99
2017-03-08T05:35:41.158Z,99.99
2017-03-08T05:36:41.181Z,99.99
2017-03-08T05:37:41.209Z,99.99
2017-03-08T05:38:41.235Z,99.99
2017-03-08T05:39:41.262Z,99.99
2017-03-08T05:40:41.286Z,99.99
2017-03-08T05:41:41.313Z,99.99
2017-03-08T05:42:41.335Z,99.99
2017-03-08T05:43:41.364Z,99.99
2017-03-08T05:44:41.386Z,99.99
2017-03-08T05:45:41.413Z,99.99
2017-03-08T05:46:41.438Z,99.99
2017-03-08T05:47:41.468Z,99.99
2017-03-08T05:48:41.492Z,99.99
2017-03-08T05:49:41.515Z,99.99
2017-03-08T05:50:41.545Z,99.99
2017-03-08T05:51:41.567Z,99.99
2017-03-08T05:52:41.595Z,99.99
2017-03-08T05:53:41.619Z,99.99
2017-03-08T05:54:41.647Z,99.99
2017-03-08T05:55:41.663Z,99.99
2017-03-08T05:56:41.697Z,99.99
2017-03-08T05:57:41.720Z,99.99
2017-03-08T05:58:41.752Z,99.99
2017-03-08T05:59:41.800Z,99.99
2017-03-08T06:00:41.802Z,99.99
2017-03-08T06:01:41.828Z,99.99
2017-03-08T06:02:41.855Z,99.99
2017-03-08T06:03:41.879Z,99.99
2017-03-08T06:04:41.904Z,99.99
2017-03-08T06:05:41.928Z,99.99
2017-03-08T06:06:41.958Z,99.99
2017-03-08T06:07:41.985Z,99.99
2017-03-08T06:08:42.009Z,99.99
2017-03-08T06:09:42.035Z,99.99
2017-03-08T06:10:42.064Z,99.99
2017-03-08T06:11:42.085Z,99.99
2017-03-08T06:12:42.113Z,99.99
2017-03-08T06:13:42.141Z,99.99
2017-03-08T06:14:42.165Z,99.99
2017-03-08T06:15:42.192Z,99.99
2017-03-08T06:16:42.214Z,99.99
2017-03-08T06:17:42.244Z,99.99
2017-03-08T06:18:42.267Z,99.99
2017-03-08T06:19:42.292Z,99.99
2017-03-08T06:20:42.321Z,99.99
2017-03-08T06:21:42.345Z,99.99
2017-03-08T06:22:42.372Z,99.99
2017-03-08T06:23:42.400Z,99.99
2017-03-08T06:24:42.424Z,99.99
2017-03-08T06:25:42.448Z,99.99
2017-03-08T06:26:42.478Z,99.99
2017-03-08T06:27:42.502Z,99.99
2017-03-08T06:28:42.525Z,99.99
2017-03-08T06:29:42.555Z,99.99
2017-03-08T06:30:42.605Z,99.99
2017-03-08T06:31:42.603Z,99.99
2017-03-08T06:32:42.629Z,99.99
2017-03-08T06:33:42.655Z,99.99
2017-03-08T06:34:42.682Z,99.99
2017-03-08T06:35:42.705Z,99.99
2017-03-08T06:36:42.733Z,99.99
2017-03-08T06:37:42.760Z,99.99
2017-03-08T06:38:42.788Z,99.99
2017-03-08T06:39:42.810Z,99.99
2017-03-08T06:40:42.837Z,99.99
2017-03-08T06:41:42.870Z,99.99
2017-03-08T06:42:42.877Z,99.99
2017-03-08T06:43:42.923Z,99.99
2017-03-08T06:44:42.941Z,99.99
2017-03-08T06:45:42.965Z,99.99
2017-03-08T06:46:42.990Z,99.99
2017-03-08T06:47:43.019Z,99.99
2017-03-08T06:48:43.044Z,99.99
2017-03-08T06:49:43.073Z,99.99
2017-03-08T06:50:43.096Z,99.99
2017-03-08T06:51:43.119Z,99.99
2017-03-08T06:52:43.148Z,99.99
2017-03-08T06:53:43.174Z,99.99
2017-03-08T06:54:43.195Z,99.99
2017-03-08T06:55:43.228Z,99.99
2017-03-08T06:56:43.253Z,99.99
2017-03-08T06:57:43.284Z,99.99
2017-03-08T06:58:43.291Z,99.99
2017-03-08T06:59:43.330Z,99.99
2017-03-08T07:00:43.354Z,99.99
2017-03-08T07:01:43.373Z,99.99
2017-03-08T07:02:43.392Z,99.99
2017-03-08T07:03:43.432Z,99.99
2017-03-08T07:04:43.458Z,99.99
2017-03-08T07:05:43.486Z,99.99
2017-03-08T07:06:43.511Z,99.99
2017-03-08T07:07:43.535Z,99.99
2017-03-08T07:08:43.565Z,99.99
2017-03-08T07:09:43.590Z,99.99
2017-03-08T07:10:43.614Z,99.99
2017-03-08T07:11:43.638Z,99.99
2017-03-08T07:12:43.666Z,99.99
2017-03-08T07:13:43.696Z,99.99
2017-03-08T07:14:43.718Z,99.99
2017-03-08T07:15:43.745Z,99.99
2017-03-08T07:16:43.773Z,99.99
2017-03-08T07:17:43.798Z,99.99
2017-03-08T07:18:43.821Z,99.99
2017-03-08T07:19:43.853Z,99.99
2017-03-08T07:20:43.876Z,99.99
2017-03-08T07:21:43.894Z,99.99
2017-03-08T07:22:43.925Z,99.99
2017-03-08T07:23:43.954Z,99.99
2017-03-08T07:24:43.981Z,99.99
2017-03-08T07:25:43.992Z,99.99
2017-03-08T07:26:44.033Z,99.99
2017-03-08T07:27:44.065Z,99.99
2017-03-08T07:28:44.088Z,99.99
2017-03-08T07:29:44.115Z,99.99
2017-03-08T07:30:44.137Z,99.99
2017-03-08T07:31:44.166Z,99.99
2017-03-08T07:32:44.192Z,99.99
2017-03-08T07:33:44.217Z,99.99
2017-03-08T07:34:44.243Z,99.99
2017-03-08T07:35:44.269Z,99.99
2017-03-08T07:36:44.325Z,99.99
2017-03-08T07:37:44.326Z,99.99
2017-03-08T07:38:44.348Z,99.99
2017-03-08T07:39:44.377Z,99.99
2017-03-08T07:40:44.393Z,99.99
2017-03-08T07:41:44.432Z,99.99
2017-03-08T07:42:44.458Z,99.99
2017-03-08T07:43:44.482Z,99.99
2017-03-08T07:44:44.507Z,99.99
2017-03-08T07:45:44.536Z,99.99
2017-03-08T07:46:44.560Z,99.99
2017-03-08T07:47:44.591Z,99.99
2017-03-08T07:48:44.602Z,99.99
2017-03-08T07:49:44.642Z,99.99
2017-03-08T07:50:44.821Z,99.99
2017-03-08T07:51:44.698Z,99.99
2017-03-08T07:52:44.722Z,99.99
2017-03-08T07:53:44.747Z,99.99
2017-03-08T07:54:44.776Z,99.99
2017-03-08T07:55:44.805Z,99.99
2017-03-08T07:56:44.830Z,99.99
2017-03-08T07:57:44.857Z,99.99
2017-03-08T07:58:44.882Z,99.99
2017-03-08T07:59:44.907Z,99.99
2017-03-08T08:00:44.936Z,99.99
2017-03-08T08:01:44.964Z,99.99
2017-03-08T08:02:44.993Z,99.99
2017-03-08T08:03:45.018Z,99.99
2017-03-08T08:04:45.045Z,99.99
2017-03-08T08:05:45.072Z,99.99
2017-03-08T08:06:45.098Z,99.99
2017-03-08T08:07:45.124Z,99.99
2017-03-08T08:08:45.154Z,99.99
2017-03-08T08:09:45.176Z,99.99
2017-03-08T08:10:45.204Z,99.99
2017-03-08T08:11:45.230Z,99.99
2017-03-08T08:12:45.864Z,99.99
2017-03-08T08:13:45.876Z,99.99
2017-03-08T08:14:45.903Z,99.99
2017-03-08T08:15:45.938Z,99.99
2017-03-08T08:16:45.957Z,99.99
2017-03-08T08:17:45.991Z,99.99
2017-03-08T08:18:46.010Z,99.99
2017-03-08T08:19:46.038Z,99.99
2017-03-08T08:20:46.074Z,99.99
2017-03-08T08:21:46.098Z,98.97
2017-03-08T08:22:46.123Z,98.4
2017-03-08T08:23:46.170Z,97.12
2017-03-08T08:24:46.485Z,96.08
2017-03-08T08:25:46.201Z,95.89
2017-03-08T08:26:46.236Z,95.79
2017-03-08T08:27:46.263Z,94.42
2017-03-08T08:28:46.286Z,93.18
2017-03-08T08:29:46.304Z,92.27
2017-03-08T08:30:46.349Z,90.8
2017-03-08T08:31:46.374Z,89
2017-03-08T08:32:46.408Z,86.85
2017-03-08T08:33:46.443Z,85.85
2017-03-08T08:34:46.459Z,82.93
2017-03-08T08:35:46.487Z,79.3
2017-03-08T08:36:46.519Z,76.23
2017-03-08T08:37:46.549Z,74.46
2017-03-08T08:38:46.586Z,72.78
2017-03-08T08:39:46.637Z,70.27
2017-03-08T08:40:46.647Z,68.04
2017-03-08T08:41:46.678Z,65.14
2017-03-08T08:42:46.719Z,62.2
2017-03-08T08:43:46.738Z,60.7
2017-03-08T08:44:46.781Z,60.03
2017-03-08T08:45:46.802Z,60.03
2017-03-08T08:46:46.847Z,59.58
2017-03-08T08:47:46.876Z,58.71
2017-03-08T08:48:46.906Z,58.23
2017-03-08T08:49:46.940Z,57.5
2017-03-08T08:50:46.978Z,56.27
2017-03-08T08:51:47.007Z,54.74
2017-03-08T08:52:47.038Z,54.45
2017-03-08T08:53:47.077Z,55.22
2017-03-08T08:54:47.110Z,54.64
2017-03-08T08:55:47.155Z,53.68
2017-03-08T08:56:47.182Z,54.61
2017-03-08T08:57:47.205Z,54.61
2017-03-08T08:58:47.259Z,55.47
2017-03-08T08:59:47.287Z,54.45
2017-03-08T09:00:47.330Z,53.9
2017-03-08T09:01:47.402Z,53.06
2017-03-08T09:02:47.403Z,51.45
2017-03-08T09:03:47.436Z,51.19
2017-03-08T09:04:47.480Z,50.25
2017-03-08T09:05:47.510Z,48.83
2017-03-08T09:06:47.558Z,49.48
2017-03-08T09:07:47.625Z,49.68
2017-03-08T09:08:47.627Z,50.13
2017-03-08T09:09:47.666Z,50.42
2017-03-08T09:10:47.709Z,50.78
2017-03-08T09:11:47.743Z,49.27
2017-03-08T09:12:47.795Z,49.1
2017-03-08T09:13:47.806Z,48.25
2017-03-08T09:14:47.867Z,47.89
2017-03-08T09:15:47.889Z,47.34
2017-03-08T09:16:47.925Z,46.78
2017-03-08T09:17:47.975Z,46.9
2017-03-08T09:18:48.013Z,47.38
2017-03-08T09:19:48.040Z,47.94
2017-03-08T09:20:48.096Z,48.86
2017-03-08T09:21:48.129Z,49.7
2017-03-08T09:22:48.164Z,49.55
2017-03-08T09:23:48.205Z,51.14
2017-03-08T09:24:48.242Z,53.01
2017-03-08T09:25:48.284Z,53.27
2017-03-08T09:26:48.308Z,53.08
2017-03-08T09:27:48.366Z,51.47
2017-03-08T09:28:48.386Z,50.73
2017-03-08T09:29:48.449Z,49.89
2017-03-08T09:30:48.475Z,47.92
2017-03-08T09:31:48.509Z,47.56
2017-03-08T09:32:48.554Z,47.77
2017-03-08T09:33:48.598Z,46.25
2017-03-08T09:34:48.635Z,46.06
2017-03-08T09:35:48.678Z,45.79
2017-03-08T09:36:48.708Z,45.41
2017-03-08T09:37:48.748Z,45.24
2017-03-08T09:38:48.812Z,43.79
2017-03-08T09:39:48.834Z,44.49
2017-03-08T09:40:48.864Z,44.2
2017-03-08T09:41:48.905Z,43.84
2017-03-08T09:42:48.948Z,43.33
2017-03-08T09:43:48.988Z,43.89
2017-03-08T09:44:49.029Z,44.08
2017-03-08T09:45:49.064Z,44.29
2017-03-08T09:46:49.107Z,44.39
2017-03-08T09:47:49.144Z,43.64
2017-03-08T09:48:49.187Z,43.37
2017-03-08T09:49:49.221Z,41.54
2017-03-08T09:50:49.314Z,42.52
2017-03-08T09:51:49.294Z,42.52
2017-03-08T09:52:49.339Z,40.11
2017-03-08T09:53:49.386Z,39.7
2017-03-08T09:54:49.436Z,40.38
2017-03-08T09:55:49.467Z,40.98
2017-03-08T09:56:49.509Z,40.88
2017-03-08T09:57:49.544Z,40.52
2017-03-08T09:58:49.586Z,39.2
2017-03-08T09:59:49.618Z,37.26
2017-03-08T10:00:49.663Z,36.96
2017-03-08T10:01:49.695Z,39.51
2017-03-08T10:02:49.740Z,39.12
2017-03-08T10:03:49.780Z,39.49
2017-03-08T10:04:49.819Z,40.15
2017-03-08T10:05:49.855Z,40.59
2017-03-08T10:06:49.894Z,42.09
2017-03-08T10:07:49.938Z,43.61
2017-03-08T10:08:49.987Z,44.45
2017-03-08T10:09:50.014Z,44.74
2017-03-08T10:10:50.066Z,45.05
2017-03-08T10:11:50.093Z,44.57
2017-03-08T10:12:50.159Z,44.28
2017-03-08T10:13:50.168Z,44.67
2017-03-08T10:14:50.195Z,44.31
2017-03-08T10:15:50.248Z,43.92
2017-03-08T10:16:50.303Z,42.32
2017-03-08T10:17:50.324Z,42.71
2017-03-08T10:18:50.367Z,44.11
2017-03-08T10:19:50.402Z,44.84
2017-03-08T10:20:50.437Z,45.22
2017-03-08T10:21:50.489Z,45.8
2017-03-08T10:22:50.512Z,46.19
2017-03-08T10:23:50.550Z,47.49
2017-03-08T10:24:50.590Z,49.36
2017-03-08T10:25:50.625Z,51.42
2017-03-08T10:26:50.663Z,52.91
2017-03-08T10:27:50.705Z,54.38
2017-03-08T10:28:50.741Z,55.53
2017-03-08T10:29:50.777Z,56.65
2017-03-08T10:30:50.822Z,57.01
2017-03-08T10:31:50.859Z,57.75
2017-03-08T10:32:50.887Z,58.61
2017-03-08T10:33:50.920Z,59.91
2017-03-08T10:34:50.972Z,61.03
2017-03-08T10:35:50.992Z,62.43
2017-03-08T10:36:51.026Z,62.62
2017-03-08T10:37:51.083Z,63.1
2017-03-08T10:38:51.094Z,63.29
2017-03-08T10:39:51.143Z,64.15
2017-03-08T10:40:51.182Z,64.81
2017-03-08T10:41:51.203Z,65.07
2017-03-08T10:42:51.234Z,65.74
2017-03-08T10:43:51.274Z,66.02
2017-03-08T10:44:51.294Z,65.26
2017-03-08T10:45:51.334Z,64.62
2017-03-08T10:46:51.367Z,64.05
2017-03-08T10:47:51.391Z,64.28
2017-03-08T10:48:51.437Z,64.18
2017-03-08T10:49:51.472Z,63.51
2017-03-08T10:50:51.508Z,63.23
2017-03-08T10:51:51.538Z,63.13
2017-03-08T10:52:51.585Z,62.84
2017-03-08T10:53:51.610Z,62.84
2017-03-08T10:54:51.648Z,63.13
2017-03-08T10:55:51.675Z,63.32
2017-03-08T10:56:51.709Z,63.32
2017-03-08T10:57:51.722Z,63.6
2017-03-08T10:58:51.777Z,63.1
2017-03-08T10:59:51.822Z,61.69
2017-03-08T11:00:51.843Z,59.94
2017-03-08T11:01:51.873Z,57.8
2017-03-08T11:02:51.906Z,55.82
2017-03-08T11:03:51.961Z,54.6
2017-03-08T11:04:51.974Z,54.38
2017-03-08T11:05:52.019Z,54.67
2017-03-08T11:06:52.045Z,55.6
2017-03-08T11:07:52.084Z,56.53
2017-03-08T11:08:52.116Z,57.2
2017-03-08T11:09:52.142Z,58.61
2017-03-08T11:10:52.171Z,58.41
2017-03-08T11:11:52.218Z,57.93
2017-03-08T11:12:52.243Z,57.84
2017-03-08T11:13:52.278Z,57.75
2017-03-08T11:14:52.327Z,56.6
2017-03-08T11:15:52.340Z,56.24
2017-03-08T11:16:52.372Z,55.29
2017-03-08T11:17:52.390Z,54.64
2017-03-08T11:18:52.421Z,53.26
2017-03-08T11:19:52.470Z,52.69
2017-03-08T11:20:52.503Z,52.28
2017-03-08T11:21:52.549Z,53.33
2017-03-08T11:22:52.571Z,54.48
2017-03-08T11:23:52.603Z,54.64
2017-03-08T11:24:52.642Z,55.57
2017-03-08T11:25:52.666Z,56.34
2017-03-08T11:26:52.723Z,56.88
2017-03-08T11:27:52.740Z,57.36
2017-03-08T11:28:52.763Z,57.75
2017-03-08T11:29:52.811Z,58.58
2017-03-08T11:30:52.830Z,58.29
2017-03-08T11:31:52.871Z,59.53
2017-03-08T11:32:52.901Z,59.53
2017-03-08T11:33:52.924Z,58.86
2017-03-08T11:34:52.971Z,58.54
2017-03-08T11:35:53.146Z,59.41
2017-03-08T11:36:53.028Z,59.78
2017-03-08T11:37:53.063Z,60.14
2017-03-08T11:38:53.096Z,61.1
2017-03-08T11:39:53.142Z,61.57
2017-03-08T11:40:53.255Z,61.86
2017-03-08T11:41:53.201Z,62.43
2017-03-08T11:42:53.227Z,62.43
2017-03-08T11:43:53.279Z,62.43
2017-03-08T11:44:53.287Z,62.68
2017-03-08T11:45:53.324Z,62.49
2017-03-08T11:46:53.359Z,63.26
2017-03-08T11:47:53.399Z,63.26
2017-03-08T11:48:53.420Z,63.54
2017-03-08T11:49:53.449Z,64.4
2017-03-08T11:50:53.496Z,64.75
2017-03-08T11:51:53.514Z,65.7
2017-03-08T11:52:53.551Z,65.52
2017-03-08T11:53:53.590Z,65.61
2017-03-08T11:54:53.604Z,66.28
2017-03-08T11:55:53.659Z,66.56
2017-03-08T11:56:53.680Z,66.85
2017-03-08T11:57:53.692Z,66.85
2017-03-08T11:58:53.744Z,66.28
2017-03-08T11:59:53.781Z,66.47
2017-03-08T12:00:53.811Z,66.75
2017-03-08T12:01:53.837Z,66.94
2017-03-08T12:02:53.867Z,66.94
2017-03-08T12:03:53.899Z,67.14
2017-03-08T12:04:53.941Z,67.61
2017-03-08T12:05:53.964Z,67.52
2017-03-08T12:06:53.998Z,67.14
2017-03-08T12:07:54.026Z,67.52
2017-03-08T12:08:54.061Z,67.42
2017-03-08T12:09:54.091Z,66.85
2017-03-08T12:10:54.123Z,66.75
2017-03-08T12:11:54.189Z,66.56
2017-03-08T12:12:54.196Z,66.56
2017-03-08T12:13:54.218Z,66.66
2017-03-08T12:14:54.256Z,66.28
2017-03-08T12:15:54.289Z,65.7
2017-03-08T12:16:54.325Z,65.89
2017-03-08T12:17:54.353Z,66.18
2017-03-08T12:18:54.391Z,66.56
2017-03-08T12:19:54.420Z,66.66
2017-03-08T12:20:54.447Z,66.56
2017-03-08T12:21:54.582Z,67.23
2017-03-08T12:22:54.516Z,67.14
2017-03-08T12:23:54.543Z,67.42
2017-03-08T12:24:54.579Z,67.52
2017-03-08T12:25:54.610Z,67.33
2017-03-08T12:26:54.989Z,67.04
2017-03-08T12:27:54.674Z,67.14
2017-03-08T12:28:54.689Z,66.34
2017-03-08T12:29:54.738Z,67.1
2017-03-08T12:30:54.775Z,67.39
2017-03-08T12:31:54.797Z,67.39
2017-03-08T12:32:54.834Z,68.72
2017-03-08T12:33:54.873Z,69.48
2017-03-08T12:34:54.896Z,69.58
2017-03-08T12:35:54.937Z,69.48
2017-03-08T12:36:54.964Z,68.91
2017-03-08T12:37:54.994Z,69.2
2017-03-08T12:38:55.026Z,68.05
2017-03-08T12:39:55.054Z,68.15
2017-03-08T12:40:55.092Z,68.63
2017-03-08T12:41:55.120Z,69.2
2017-03-08T12:42:55.164Z,68.88
2017-03-08T12:43:55.201Z,69.26
2017-03-08T12:44:55.215Z,69.45
2017-03-08T12:45:55.256Z,69.2
2017-03-08T12:46:55.278Z,68.63
2017-03-08T12:47:55.317Z,68.34
2017-03-08T12:48:55.340Z,68.34
2017-03-08T12:49:55.372Z,67.77
2017-03-08T12:50:55.399Z,68.34
2017-03-08T12:51:55.444Z,68.91
2017-03-08T12:52:55.463Z,68.34
2017-03-08T12:53:55.496Z,68.24